Time;durP1;ratioP1;P1;durP2;ratioP2;P2;SDS_P1;SDS_P2;PMS_P1;PMS_P2;Temp;Humidity;BMP_temperature;BMP_pressure;BME280_temperature;BME280_humidity;BME280_pressure;Samples;Min_cycle;Max_cycle;Signal;HPM_P1;HPM_P2
2022/07/05 00:00:55;;;;;;;2.75;1.50;;;23.80;99.90;;;;;;4145045;28;20221;-79
2022/07/05 00:02:58;;;;;;;1.83;1.42;;;23.80;99.90;;;;;;4146469;28;20221;-78
2022/07/05 00:05:00;;;;;;;2.00;1.40;;;23.80;99.90;;;;;;4146099;28;20368;-78
2022/07/05 00:07:18;;;;;;;2.13;1.15;;;23.80;99.90;;;;;;4146427;28;20632;-78
2022/07/05 00:09:20;;;;;;;2.70;1.20;;;23.80;99.90;;;;;;4142918;28;20217;-78
2022/07/05 00:11:23;;;;;;;1.40;1.30;;;23.70;99.90;;;;;;4135194;28;20238;-78
2022/07/05 00:13:25;;;;;;;2.28;1.30;;;23.70;99.90;;;;;;4143126;28;20579;-78
2022/07/05 00:15:27;;;;;;;2.72;1.30;;;23.70;99.90;;;;;;4146142;28;20216;-79
2022/07/05 00:17:30;;;;;;;1.60;1.23;;;23.70;99.90;;;;;;4146252;28;20224;-78
2022/07/05 00:19:34;;;;;;;1.67;1.27;;;23.70;99.90;;;;;;4146723;28;20213;-78
2022/07/05 00:21:36;;;;;;;1.98;1.30;;;23.70;99.90;;;;;;4145829;28;20926;-78
2022/07/05 00:23:39;;;;;;;2.38;1.33;;;23.70;99.90;;;;;;4146328;28;20267;-78
2022/07/05 00:25:41;;;;;;;2.20;1.70;;;23.70;99.90;;;;;;4146001;28;20348;-78
2022/07/05 00:27:44;;;;;;;1.77;1.30;;;23.70;99.90;;;;;;4145973;28;20622;-78
2022/07/05 00:29:46;;;;;;;1.27;1.15;;;23.70;99.90;;;;;;4140971;28;20213;-78
2022/07/05 00:31:48;;;;;;;2.97;1.20;;;23.70;99.90;;;;;;4142040;28;20213;-78
2022/07/05 00:33:51;;;;;;;2.15;1.30;;;23.70;99.90;;;;;;4148991;28;20661;-78
2022/07/05 00:35:54;;;;;;;1.58;1.20;;;23.70;99.90;;;;;;4148945;28;20213;-78
2022/07/05 00:37:57;;;;;;;2.17;1.40;;;23.70;99.90;;;;;;4149145;28;20213;-79
2022/07/05 00:39:59;;;;;;;1.27;1.17;;;23.70;99.90;;;;;;4149181;28;20217;-78
2022/07/05 00:42:02;;;;;;;1.75;1.38;;;23.70;99.90;;;;;;4149108;28;20435;-78
2022/07/05 00:44:06;;;;;;;1.95;1.45;;;23.70;99.90;;;;;;4149434;28;20299;-78
2022/07/05 00:46:08;;;;;;;2.10;1.48;;;23.70;99.90;;;;;;4141542;28;20218;-78
2022/07/05 00:48:11;;;;;;;1.58;1.48;;;23.70;99.90;;;;;;4148734;28;20240;-78
2022/07/05 00:50:13;;;;;;;1.92;1.20;;;23.70;99.90;;;;;;4148661;28;20272;-78
2022/07/05 00:52:17;;;;;;;1.75;1.25;;;23.70;99.90;;;;;;4149141;28;20297;-78
2022/07/05 00:54:20;;;;;;;1.77;1.30;;;23.70;99.90;;;;;;4149340;28;20307;-78
2022/07/05 00:56:25;;;;;;;1.45;1.13;;;23.70;99.90;;;;;;4148645;28;20225;-78
2022/07/05 00:58:29;;;;;;;1.80;1.30;;;23.70;99.90;;;;;;4142891;28;20255;-78
2022/07/05 01:00:31;;;;;;;2.47;1.40;;;23.70;99.90;;;;;;4148669;28;20225;-78
2022/07/05 01:02:34;;;;;;;1.70;1.30;;;23.60;99.90;;;;;;4146471;28;20229;-78
2022/07/05 01:04:36;;;;;;;2.45;1.20;;;23.60;99.90;;;;;;4148553;28;20689;-78
2022/07/05 01:06:39;;;;;;;2.88;1.52;;;23.70;99.90;;;;;;4148392;28;20263;-78
2022/07/05 01:08:45;;;;;;;1.65;1.40;;;23.60;99.90;;;;;;4146746;28;20221;-76
2022/07/05 01:10:47;;;;;;;2.10;1.40;;;23.60;99.90;;;;;;4144594;28;20241;-78
2022/07/05 01:12:50;;;;;;;1.65;1.20;;;23.60;99.90;;;;;;4147839;28;20708;-78
2022/07/05 01:14:53;;;;;;;2.20;1.33;;;23.60;99.90;;;;;;4147529;28;20267;-78
2022/07/05 01:16:55;;;;;;;1.20;1.10;;;23.60;99.90;;;;;;4147539;28;20263;-78
2022/07/05 01:18:58;;;;;;;1.45;1.10;;;23.60;99.90;;;;;;4148333;28;20623;-78
2022/07/05 01:21:03;;;;;;;1.77;1.13;;;23.60;99.90;;;;;;4142047;28;20263;-78
2022/07/05 01:23:07;;;;;;;2.15;1.45;;;23.50;99.90;;;;;;4148540;28;20295;-78
2022/07/05 01:25:09;;;;;;;1.90;1.20;;;23.60;99.90;;;;;;4147786;28;20248;-78
2022/07/05 01:27:12;;;;;;;2.83;1.65;;;23.60;99.90;;;;;;4148295;28;20275;-78
2022/07/05 01:29:15;;;;;;;1.55;1.23;;;23.60;99.90;;;;;;4142099;28;20221;-78
2022/07/05 01:31:18;;;;;;;1.27;1.17;;;23.60;99.90;;;;;;4143868;28;20221;-79
2022/07/05 01:33:27;;;;;;;1.77;1.00;;;23.50;99.90;;;;;;4148606;28;20225;-78
2022/07/05 01:35:29;;;;;;;1.95;1.23;;;23.50;99.90;;;;;;4148521;28;20260;-78
2022/07/05 01:37:32;;;;;;;2.65;1.23;;;23.60;99.90;;;;;;4145957;28;20294;-78
2022/07/05 01:39:36;;;;;;;2.28;1.27;;;23.50;99.90;;;;;;4147827;28;20665;-78
2022/07/05 01:41:38;;;;;;;1.98;1.27;;;23.50;99.90;;;;;;4148149;28;20224;-78
2022/07/05 01:43:40;;;;;;;1.42;1.20;;;23.50;99.90;;;;;;4147597;28;20217;-78
2022/07/05 01:45:45;;;;;;;2.10;1.35;;;23.50;99.90;;;;;;4147908;28;20233;-78
2022/07/05 01:47:49;;;;;;;2.65;1.60;;;23.60;99.90;;;;;;4148293;28;20205;-77
2022/07/05 01:49:55;;;;;;;2.00;1.40;;;23.50;99.90;;;;;;4148137;28;20261;-78
2022/07/05 01:52:03;;;;;;;1.73;1.23;;;23.50;99.90;;;;;;4148122;28;20600;-78
2022/07/05 01:54:06;;;;;;;1.33;1.23;;;23.50;99.90;;;;;;4138208;28;20312;-78
2022/07/05 01:56:09;;;;;;;1.40;1.30;;;23.50;99.90;;;;;;4147590;28;20255;-78
2022/07/05 01:58:12;;;;;;;2.47;1.42;;;23.50;99.90;;;;;;4139131;28;20312;-78
2022/07/05 02:00:15;;;;;;;1.83;1.25;;;23.50;99.90;;;;;;4147954;28;20217;-78
2022/07/05 02:02:18;;;;;;;1.13;1.02;;;23.50;99.90;;;;;;4147489;28;20268;-78
2022/07/05 02:04:21;;;;;;;1.90;1.27;;;23.50;99.90;;;;;;4148125;28;20213;-78
2022/07/05 02:06:24;;;;;;;1.48;1.20;;;23.50;99.90;;;;;;4147633;28;20648;-78
2022/07/05 02:08:30;;;;;;;2.17;1.45;;;23.50;99.90;;;;;;4140817;28;20716;-78
2022/07/05 02:10:32;;;;;;;2.47;1.33;;;23.50;99.90;;;;;;4143524;28;20280;-77
2022/07/05 02:12:36;;;;;;;1.25;1.15;;;23.50;99.90;;;;;;4147724;28;20312;-78
2022/07/05 02:14:38;;;;;;;1.67;1.27;;;23.40;99.90;;;;;;4147625;28;20619;-78
2022/07/05 02:16:41;;;;;;;3.53;1.40;;;23.50;99.90;;;;;;4147666;28;20209;-78
2022/07/05 02:18:44;;;;;;;2.70;1.30;;;23.40;99.90;;;;;;4147335;28;20711;-78
2022/07/05 02:20:46;;;;;;;1.75;1.33;;;23.50;99.90;;;;;;4147721;28;20217;-78
2022/07/05 02:22:48;;;;;;;4.68;1.50;;;23.40;99.90;;;;;;4147674;28;20217;-78
2022/07/05 02:24:51;;;;;;;1.70;1.30;;;23.50;99.90;;;;;;4146877;28;20209;-78
2022/07/05 02:26:53;;;;;;;2.25;1.40;;;23.50;99.90;;;;;;4146787;28;20221;-78
2022/07/05 02:28:57;;;;;;;2.25;1.20;;;23.50;99.90;;;;;;4140138;28;20221;-78
2022/07/05 02:30:59;;;;;;;1.40;1.30;;;23.40;99.90;;;;;;4146323;28;20213;-78
2022/07/05 02:33:01;;;;;;;1.35;1.23;;;23.50;99.90;;;;;;4146487;28;20217;-78
2022/07/05 02:35:05;;;;;;;2.00;1.17;;;23.50;99.90;;;;;;4146656;28;20209;-78
2022/07/05 02:37:07;;;;;;;2.35;1.40;;;23.50;99.90;;;;;;4146370;28;20657;-78
2022/07/05 02:39:09;;;;;;;1.90;1.50;;;23.50;99.90;;;;;;4146875;28;20306;-78
2022/07/05 02:41:13;;;;;;;2.08;1.40;;;23.50;99.90;;;;;;4142506;28;20312;-78
2022/07/05 02:43:15;;;;;;;2.15;1.40;;;23.40;99.90;;;;;;4147471;28;20224;-78
2022/07/05 02:45:19;;;;;;;1.65;1.48;;;23.40;99.90;;;;;;4143242;28;20241;-78
2022/07/05 02:47:21;;;;;;;1.30;1.20;;;23.40;99.90;;;;;;4146981;28;20225;-78
2022/07/05 02:49:23;;;;;;;2.63;1.52;;;23.40;99.90;;;;;;4146782;28;20665;-78
2022/07/05 02:51:26;;;;;;;1.85;1.50;;;23.40;99.90;;;;;;4146584;28;20611;-78
2022/07/05 02:53:28;;;;;;;1.45;1.33;;;23.40;99.90;;;;;;4146300;28;20221;-78
2022/07/05 02:55:30;;;;;;;2.35;1.23;;;23.40;99.90;;;;;;4144760;28;20256;-78
2022/07/05 02:57:33;;;;;;;1.90;1.50;;;23.40;99.90;;;;;;4142591;28;20221;-78
2022/07/05 02:59:35;;;;;;;1.70;1.40;;;23.40;99.90;;;;;;4146169;28;20259;-78
2022/07/05 03:01:39;;;;;;;1.75;1.60;;;23.40;99.90;;;;;;4141599;28;20221;-78
2022/07/05 03:03:41;;;;;;;2.30;1.40;;;23.40;99.90;;;;;;4143981;28;20267;-78
2022/07/05 03:05:43;;;;;;;1.50;1.30;;;23.40;99.90;;;;;;4146066;28;20696;-78
2022/07/05 03:07:46;;;;;;;2.97;1.55;;;23.40;99.90;;;;;;4144965;28;20655;-78
2022/07/05 03:09:48;;;;;;;1.50;1.20;;;23.40;99.90;;;;;;4145964;28;20213;-77
2022/07/05 03:11:50;;;;;;;1.75;1.40;;;23.40;99.90;;;;;;4141116;28;20221;-78
2022/07/05 03:13:53;;;;;;;1.52;1.30;;;23.40;99.90;;;;;;4145395;28;20304;-78
2022/07/05 03:15:55;;;;;;;2.72;1.75;;;23.40;99.90;;;;;;4145503;28;20357;-78
2022/07/05 03:17:59;;;;;;;2.10;1.40;;;23.40;99.90;;;;;;4143202;28;20217;-78
2022/07/05 03:20:01;;;;;;;1.63;1.30;;;23.40;99.90;;;;;;4143724;28;20213;-78
2022/07/05 03:22:04;;;;;;;2.03;1.48;;;23.40;99.90;;;;;;4146482;28;20262;-78
2022/07/05 03:24:06;;;;;;;1.92;1.38;;;23.30;99.90;;;;;;4146500;28;20272;-78
2022/07/05 03:26:09;;;;;;;1.65;1.30;;;23.30;99.90;;;;;;4146769;28;20245;-78
2022/07/05 03:28:11;;;;;;;1.55;1.20;;;23.30;99.90;;;;;;4146598;28;20221;-78
2022/07/05 03:30:14;;;;;;;1.55;1.40;;;23.30;99.90;;;;;;4146896;28;20690;-78
2022/07/05 03:32:16;;;;;;;3.10;1.52;;;23.30;99.90;;;;;;4146444;28;20225;-78
2022/07/05 03:34:20;;;;;;;2.38;1.33;;;23.30;99.90;;;;;;4146545;28;20287;-78
2022/07/05 03:36:22;;;;;;;1.80;1.42;;;23.30;99.90;;;;;;4138798;28;20364;-78
2022/07/05 03:38:25;;;;;;;2.30;1.20;;;23.30;99.90;;;;;;4146919;28;20221;-78
2022/07/05 03:40:27;;;;;;;2.97;1.67;;;23.30;99.90;;;;;;4140931;28;20218;-78
2022/07/05 03:42:29;;;;;;;1.45;1.30;;;23.30;99.90;;;;;;4146306;28;20284;-78
2022/07/05 03:44:33;;;;;;;2.47;1.30;;;23.30;99.90;;;;;;4146296;28;20213;-78
2022/07/05 03:46:35;;;;;;;2.67;1.80;;;23.30;99.90;;;;;;4140424;28;20237;-78
2022/07/05 03:48:37;;;;;;;1.63;1.50;;;23.30;99.90;;;;;;4146160;28;20615;-78
2022/07/05 03:50:41;;;;;;;2.63;1.38;;;23.30;99.90;;;;;;4146705;28;20272;-78
2022/07/05 03:52:43;;;;;;;1.80;1.23;;;23.30;99.90;;;;;;4141281;28;20627;-78
2022/07/05 03:54:45;;;;;;;1.90;1.40;;;23.30;99.90;;;;;;4146399;28;20213;-78
2022/07/05 03:56:48;;;;;;;1.92;1.45;;;23.30;99.90;;;;;;4143215;28;20205;-78
2022/07/05 03:58:51;;;;;;;1.73;1.45;;;23.20;99.90;;;;;;4146177;28;20268;-78
2022/07/05 04:00:53;;;;;;;2.92;1.65;;;23.20;99.90;;;;;;4146530;28;20213;-78
2022/07/05 04:02:55;;;;;;;1.30;1.20;;;23.20;99.90;;;;;;4145082;28;20217;-78
2022/07/05 04:04:58;;;;;;;1.33;1.10;;;23.20;99.90;;;;;;4146343;28;20423;-78
2022/07/05 04:07:01;;;;;;;2.65;1.45;;;23.20;99.90;;;;;;4147062;28;20569;-78
2022/07/05 04:09:04;;;;;;;2.17;1.40;;;23.20;99.90;;;;;;4149799;28;20235;-77
2022/07/05 04:11:07;;;;;;;1.70;1.30;;;23.20;99.90;;;;;;4148710;28;20740;-78
2022/07/05 04:13:10;;;;;;;2.63;1.30;;;23.20;99.90;;;;;;4149641;28;20212;-78
2022/07/05 04:15:12;;;;;;;1.45;1.33;;;23.20;99.90;;;;;;4149494;28;20279;-78
2022/07/05 04:17:14;;;;;;;2.10;1.20;;;23.20;99.90;;;;;;4149459;28;20278;-78
2022/07/05 04:19:17;;;;;;;2.92;1.55;;;23.20;99.90;;;;;;4149358;28;20295;-78
2022/07/05 04:21:19;;;;;;;2.15;1.30;;;23.20;99.90;;;;;;4149310;28;20662;-78
2022/07/05 04:23:23;;;;;;;1.70;1.52;;;23.20;99.90;;;;;;4148989;28;20221;-78
2022/07/05 04:25:25;;;;;;;2.33;1.42;;;23.20;99.90;;;;;;4149351;28;20221;-78
2022/07/05 04:27:27;;;;;;;3.33;1.33;;;23.20;99.90;;;;;;4146862;28;20314;-78
2022/07/05 04:29:29;;;;;;;1.42;1.10;;;23.20;99.90;;;;;;4148985;28;20217;-78
2022/07/05 04:31:32;;;;;;;1.70;1.40;;;23.20;99.90;;;;;;4148166;28;20335;-78
2022/07/05 04:33:34;;;;;;;1.73;1.52;;;23.20;99.90;;;;;;4148308;28;20217;-78
2022/07/05 04:35:37;;;;;;;2.90;1.73;;;23.20;99.90;;;;;;4145589;28;20213;-78
2022/07/05 04:37:40;;;;;;;1.40;1.27;;;23.20;99.90;;;;;;4148654;28;20672;-78
2022/07/05 04:39:44;;;;;;;3.08;1.60;;;23.20;99.90;;;;;;4148834;28;20229;-78
2022/07/05 04:41:46;;;;;;;2.38;1.30;;;23.20;99.90;;;;;;4148006;28;20279;-78
2022/07/05 04:43:49;;;;;;;1.88;1.65;;;23.20;99.90;;;;;;4146144;28;20213;-78
2022/07/05 04:45:51;;;;;;;2.78;1.30;;;23.20;99.90;;;;;;4147753;28;20260;-78
2022/07/05 04:47:53;;;;;;;2.80;1.60;;;23.20;99.90;;;;;;4148739;28;20241;-78
2022/07/05 04:49:57;;;;;;;2.03;1.45;;;23.20;99.90;;;;;;4147224;28;20275;-78
2022/07/05 04:51:59;;;;;;;1.75;1.38;;;23.10;99.90;;;;;;4146983;28;20213;-78
2022/07/05 04:54:02;;;;;;;1.60;1.50;;;23.20;99.90;;;;;;4147834;28;20291;-78
2022/07/05 04:56:06;;;;;;;1.73;1.30;;;23.20;99.90;;;;;;4147324;28;20247;-78
2022/07/05 04:58:08;;;;;;;2.05;1.50;;;23.20;99.90;;;;;;4147266;28;20225;-78
2022/07/05 05:00:13;;;;;;;2.15;1.27;;;23.20;99.90;;;;;;4144691;28;20214;-78
2022/07/05 05:02:15;;;;;;;3.17;1.45;;;23.20;99.90;;;;;;4146728;28;20299;-78
2022/07/05 05:04:18;;;;;;;2.03;1.50;;;23.20;99.90;;;;;;4146147;28;20911;-78
2022/07/05 05:06:20;;;;;;;2.35;1.35;;;23.20;99.90;;;;;;4146309;28;20719;-78
2022/07/05 05:08:22;;;;;;;2.42;1.55;;;23.20;99.90;;;;;;4146279;28;20220;-78
2022/07/05 05:10:25;;;;;;;2.72;1.70;;;23.10;99.90;;;;;;4145754;28;20231;-78
2022/07/05 05:12:29;;;;;;;3.95;1.80;;;23.20;99.90;;;;;;4146775;28;20680;-78
2022/07/05 05:14:31;;;;;;;3.25;1.42;;;23.20;99.90;;;;;;4144235;28;20276;-78
2022/07/05 05:16:33;;;;;;;2.83;1.48;;;23.20;99.90;;;;;;4147491;28;20858;-78
2022/07/05 05:18:35;;;;;;;2.30;1.45;;;23.20;99.90;;;;;;4144052;28;21731;-78
2022/07/05 05:20:38;;;;;;;2.17;1.65;;;23.20;99.90;;;;;;4146686;28;20213;-78
2022/07/05 05:22:40;;;;;;;2.65;1.48;;;23.20;99.90;;;;;;4147098;28;20221;-78
2022/07/05 05:24:42;;;;;;;1.60;1.38;;;23.20;99.90;;;;;;4146379;28;20267;-78
2022/07/05 05:26:45;;;;;;;2.13;1.70;;;23.20;99.90;;;;;;4146665;28;20260;-78
2022/07/05 05:28:48;;;;;;;4.00;1.60;;;23.20;99.90;;;;;;4146310;28;20212;-78
2022/07/05 05:30:51;;;;;;;2.63;1.48;;;23.20;99.90;;;;;;4144834;28;20681;-78
2022/07/05 05:32:53;;;;;;;2.83;1.40;;;23.20;99.90;;;;;;4146142;28;20678;-78
2022/07/05 05:34:55;;;;;;;2.47;1.60;;;23.20;99.90;;;;;;4140864;28;20220;-77
2022/07/05 05:36:58;;;;;;;2.33;1.35;;;23.20;99.90;;;;;;4146591;28;20328;-78
2022/07/05 05:39:00;;;;;;;2.47;1.70;;;23.20;99.90;;;;;;4146531;28;20213;-78
2022/07/05 05:41:05;;;;;;;3.05;1.40;;;23.20;99.90;;;;;;4145244;28;21010;-73
2022/07/05 05:43:08;;;;;;;2.75;1.60;;;23.20;99.90;;;;;;4144927;28;20983;-74
2022/07/05 05:45:12;;;;;;;1.83;1.42;;;23.20;99.90;;;;;;4145012;28;20205;-73
2022/07/05 05:47:15;;;;;;;2.13;1.60;;;23.20;99.90;;;;;;4144487;28;20237;-73
2022/07/05 05:49:17;;;;;;;3.88;1.60;;;23.20;99.90;;;;;;4143875;28;20217;-74
2022/07/05 05:51:20;;;;;;;1.73;1.60;;;23.20;99.90;;;;;;4142469;28;20221;-73
2022/07/05 05:53:22;;;;;;;2.55;1.70;;;23.20;99.90;;;;;;4143817;28;20217;-73
2022/07/05 05:55:25;;;;;;;3.60;1.50;;;23.20;99.90;;;;;;4143820;28;20217;-74
2022/07/05 05:57:28;;;;;;;1.60;1.45;;;23.20;99.90;;;;;;4143825;28;20213;-73
2022/07/05 05:59:30;;;;;;;2.15;1.33;;;23.20;99.90;;;;;;4144277;28;20709;-73
2022/07/05 06:01:34;;;;;;;3.22;1.50;;;23.20;99.90;;;;;;4143930;28;20225;-74
2022/07/05 06:03:36;;;;;;;3.33;1.90;;;23.20;99.90;;;;;;4143700;28;20244;-74
2022/07/05 06:05:38;;;;;;;3.00;1.63;;;23.20;99.90;;;;;;4143458;28;20268;-74
2022/07/05 06:07:51;;;;;;;2.38;1.27;;;23.20;99.90;;;;;;4143437;28;20641;-74
2022/07/05 06:09:54;;;;;;;1.58;1.27;;;23.20;99.90;;;;;;4141568;28;20634;-74
2022/07/05 06:11:56;;;;;;;1.77;1.40;;;23.20;99.90;;;;;;4143665;28;20225;-73
2022/07/05 06:13:58;;;;;;;1.40;1.27;;;23.20;99.90;;;;;;4143747;28;20271;-74
2022/07/05 06:16:01;;;;;;;3.08;1.40;;;23.20;99.90;;;;;;4143414;28;20259;-74
2022/07/05 06:18:05;;;;;;;2.22;1.50;;;23.20;99.90;;;;;;4143754;28;20205;-73
2022/07/05 06:20:09;;;;;;;3.67;1.70;;;23.20;99.90;;;;;;4142915;28;20832;-74
2022/07/05 06:22:12;;;;;;;1.88;1.60;;;23.20;99.90;;;;;;4143742;28;20279;-73
2022/07/05 06:24:14;;;;;;;2.30;1.30;;;23.20;99.90;;;;;;4143635;28;20243;-73
2022/07/05 06:26:16;;;;;;;2.30;1.45;;;23.20;99.90;;;;;;4141650;28;20268;-74
2022/07/05 06:28:18;;;;;;;1.63;1.45;;;23.30;99.90;;;;;;4142615;28;20270;-73
2022/07/05 06:30:23;;;;;;;1.85;1.52;;;23.30;99.90;;;;;;4143410;28;20220;-74
2022/07/05 06:32:25;;;;;;;2.33;1.48;;;23.20;99.90;;;;;;4143509;28;20221;-73
2022/07/05 06:34:29;;;;;;;3.05;1.85;;;23.20;99.90;;;;;;4143092;28;20531;-74
2022/07/05 06:36:31;;;;;;;1.90;1.35;;;23.20;99.90;;;;;;4141431;28;20681;-73
2022/07/05 06:38:34;;;;;;;2.22;1.33;;;23.30;99.90;;;;;;4144047;28;20658;-73
2022/07/05 06:40:37;;;;;;;3.65;1.40;;;23.20;99.90;;;;;;4142307;28;20213;-74
2022/07/05 06:42:40;;;;;;;1.98;1.40;;;23.30;99.90;;;;;;4140516;28;20217;-73
2022/07/05 06:44:43;;;;;;;1.63;1.27;;;23.30;99.90;;;;;;4143800;28;20217;-74
2022/07/05 06:46:45;;;;;;;3.35;1.20;;;23.30;99.90;;;;;;4143464;28;20217;-74
2022/07/05 06:48:48;;;;;;;2.97;1.50;;;23.30;99.90;;;;;;4143272;28;20287;-73
2022/07/05 06:50:51;;;;;;;2.13;1.20;;;23.30;99.90;;;;;;4142248;28;20720;-73
2022/07/05 06:52:54;;;;;;;1.52;1.38;;;23.30;99.90;;;;;;4143465;28;20276;-73
2022/07/05 06:54:57;;;;;;;2.35;1.48;;;23.30;99.90;;;;;;4143151;28;20633;-74
2022/07/05 06:56:59;;;;;;;2.40;1.38;;;23.30;99.90;;;;;;4143323;28;20217;-73
2022/07/05 06:59:01;;;;;;;2.38;1.17;;;23.30;99.90;;;;;;4143259;28;20209;-74
2022/07/05 07:01:03;;;;;;;5.95;2.08;;;23.30;99.90;;;;;;4139883;28;20217;-73
2022/07/05 07:03:06;;;;;;;7.25;2.20;;;23.10;99.90;;;;;;4143107;28;20669;-73
2022/07/05 07:05:09;;;;;;;5.65;2.38;;;22.80;99.90;;;;;;4143276;28;20264;-74
2022/07/05 07:09:29;;;;;;;6.50;2.58;;;22.30;99.90;;;;;;4138495;28;20701;-75
2022/07/05 07:11:32;;;;;;;6.93;2.35;;;22.20;99.90;;;;;;4153228;28;20263;-74
2022/07/05 07:13:35;;;;;;;8.43;2.20;;;22.10;99.90;;;;;;4157022;28;20208;-75
2022/07/05 07:15:38;;;;;;;8.70;2.38;;;22.00;99.90;;;;;;4149191;28;20225;-75
2022/07/05 07:17:40;;;;;;;5.85;2.00;;;21.90;99.90;;;;;;4155126;28;20278;-74
2022/07/05 07:19:43;;;;;;;9.18;2.60;;;21.90;99.90;;;;;;4154832;28;20209;-75
2022/07/05 07:21:45;;;;;;;10.38;2.70;;;21.90;99.90;;;;;;4154971;28;20664;-75
2022/07/05 07:23:49;;;;;;;9.85;2.50;;;22.00;99.90;;;;;;4157851;28;20216;-74
2022/07/05 07:25:51;;;;;;;8.07;2.38;;;22.00;99.90;;;;;;4161239;28;20298;-76
2022/07/05 07:27:56;;;;;;;8.65;2.22;;;22.00;99.90;;;;;;4155879;28;20309;-74
2022/07/05 07:29:58;;;;;;;7.40;2.38;;;21.90;99.90;;;;;;4152688;28;20653;-73
2022/07/05 07:32:01;;;;;;;9.98;2.67;;;22.00;99.90;;;;;;4158011;28;20216;-74
2022/07/05 07:34:03;;;;;;;10.52;2.88;;;22.00;99.90;;;;;;4146682;28;20568;-74
2022/07/05 07:36:06;;;;;;;5.47;2.53;;;22.10;99.90;;;;;;4153832;28;20216;-74
2022/07/05 07:38:08;;;;;;;9.48;2.97;;;22.20;99.90;;;;;;4143230;28;20278;-74
2022/07/05 07:40:12;;;;;;;8.20;2.55;;;22.20;99.90;;;;;;4152865;28;20224;-74
2022/07/05 07:42:15;;;;;;;12.45;3.28;;;22.10;99.90;;;;;;4150649;28;20228;-75
2022/07/05 07:44:17;;;;;;;5.70;2.33;;;22.10;99.90;;;;;;4151415;28;20274;-74
2022/07/05 07:46:19;;;;;;;6.03;2.75;;;22.20;99.90;;;;;;4153145;28;20239;-74
2022/07/05 07:48:22;;;;;;;11.10;3.55;;;22.30;99.90;;;;;;4155739;28;20692;-75
2022/07/05 07:50:24;;;;;;;10.23;3.47;;;22.40;99.90;;;;;;4154893;28;20285;-76
2022/07/05 07:52:27;;;;;;;12.45;3.30;;;22.40;99.90;;;;;;4155557;28;20208;-78
2022/07/05 07:54:29;;;;;;;7.75;3.10;;;22.30;99.90;;;;;;4157536;28;20221;-74
2022/07/05 07:56:33;;;;;;;8.18;3.03;;;22.20;99.90;;;;;;4158722;28;20540;-77
2022/07/05 07:58:35;;;;;;;12.30;3.28;;;22.30;99.90;;;;;;4156563;28;20216;-76
2022/07/05 08:00:37;;;;;;;11.45;3.58;;;22.30;99.90;;;;;;4157545;28;20216;-74
2022/07/05 08:02:42;;;;;;;8.95;3.28;;;22.30;99.90;;;;;;4151609;28;20224;-75
2022/07/05 08:04:44;;;;;;;7.40;3.15;;;22.20;99.90;;;;;;4159314;28;20216;-77
2022/07/05 08:06:47;;;;;;;8.85;3.13;;;22.30;99.90;;;;;;4152280;28;20712;-75
2022/07/05 08:08:49;;;;;;;8.90;3.03;;;22.30;99.90;;;;;;4155386;28;20232;-76
2022/07/05 08:10:51;;;;;;;13.68;3.53;;;22.40;99.90;;;;;;4146977;28;20716;-77
2022/07/05 08:12:55;;;;;;;9.38;3.03;;;22.40;99.90;;;;;;4137432;28;20240;-74
2022/07/05 08:14:57;;;;;;;11.13;3.25;;;22.50;99.90;;;;;;4137181;28;20212;-76
2022/07/05 08:17:00;;;;;;;10.82;3.20;;;22.40;99.90;;;;;;4136866;28;20217;-75
2022/07/05 08:21:30;;;;;;;5.43;3.55;;;22.40;99.90;;;;;;4139445;28;20201;-76
2022/07/05 08:23:33;;;;;;;8.90;3.40;;;22.40;99.90;;;;;;4139094;28;20216;-76
2022/07/05 08:25:35;;;;;;;13.05;3.30;;;22.40;99.90;;;;;;4137752;28;20209;-78
2022/07/05 08:27:37;;;;;;;10.50;3.63;;;22.40;99.90;;;;;;4138513;28;20221;-78
2022/07/05 08:29:41;;;;;;;11.57;3.72;;;22.50;99.90;;;;;;4141689;28;20700;-77
2022/07/05 08:31:46;;;;;;;14.10;3.60;;;22.60;99.90;;;;;;4140470;28;20252;-79
2022/07/05 08:33:49;;;;;;;7.88;2.83;;;22.50;99.90;;;;;;4142600;28;20225;-77
2022/07/05 08:35:51;;;;;;;9.48;3.58;;;22.50;99.90;;;;;;4139464;28;22118;-78
2022/07/05 08:37:54;;;;;;;9.75;3.30;;;22.50;99.90;;;;;;4140903;28;20225;-76
2022/07/05 08:39:56;;;;;;;10.43;3.47;;;22.60;99.90;;;;;;4137825;28;20217;-75
2022/07/05 08:42:00;;;;;;;8.95;4.05;;;22.60;99.90;;;;;;4136310;28;21096;-77
2022/07/05 08:44:04;;;;;;;9.45;4.00;;;22.60;99.90;;;;;;4137412;28;20610;-75
2022/07/05 08:46:10;;;;;;;9.32;4.38;;;22.70;99.90;;;;;;4136980;28;20263;-75
2022/07/05 08:48:13;;;;;;;10.20;5.25;;;22.70;99.90;;;;;;4137467;28;20566;-78
2022/07/05 08:50:17;;;;;;;13.88;5.43;;;22.80;99.90;;;;;;4138294;28;20941;-78
2022/07/05 08:52:20;;;;;;;10.57;5.20;;;22.80;99.90;;;;;;4137957;28;20242;-75
2022/07/05 08:54:24;;;;;;;9.05;4.93;;;22.70;99.90;;;;;;4139139;28;20221;-77
2022/07/05 08:56:27;;;;;;;11.68;5.03;;;22.70;99.90;;;;;;4141297;28;20287;-76
2022/07/05 08:58:29;;;;;;;9.98;4.68;;;22.70;99.90;;;;;;4140331;28;20293;-78
2022/07/05 09:00:31;;;;;;;7.75;4.47;;;22.80;99.90;;;;;;4139002;28;20291;-76
2022/07/05 09:02:35;;;;;;;7.05;3.97;;;22.80;99.90;;;;;;4139774;28;20229;-75
2022/07/05 09:04:43;;;;;;;11.50;3.83;;;22.80;99.90;;;;;;4141942;28;20636;-77
2022/07/05 09:06:48;;;;;;;8.55;3.72;;;22.80;99.90;;;;;;4139070;28;20653;-77
2022/07/05 09:08:53;;;;;;;10.43;4.28;;;22.80;99.90;;;;;;4143909;28;20719;-79
2022/07/05 09:10:55;;;;;;;6.78;3.08;;;22.80;99.90;;;;;;4138542;28;20264;-76
2022/07/05 09:12:58;;;;;;;13.27;3.97;;;22.80;99.90;;;;;;4144070;28;20265;-80
2022/07/05 09:15:01;;;;;;;12.18;3.42;;;22.80;99.90;;;;;;4139358;28;20221;-78
2022/07/05 09:17:03;;;;;;;8.20;3.25;;;22.80;99.90;;;;;;4140274;28;20670;-83
2022/07/05 09:19:09;;;;;;;12.30;3.25;;;22.80;99.90;;;;;;4131702;28;20521;-78
2022/07/05 09:21:16;;;;;;;8.32;2.95;;;22.90;99.90;;;;;;4141655;28;20217;-77
2022/07/05 09:23:21;;;;;;;8.23;3.15;;;23.00;99.90;;;;;;4142018;28;20224;-79
2022/07/05 09:25:27;;;;;;;8.57;2.60;;;23.00;99.90;;;;;;4140700;28;20221;-79
2022/07/05 09:27:33;;;;;;;9.73;2.92;;;23.00;99.90;;;;;;4141255;28;20225;-79
2022/07/05 09:29:36;;;;;;;7.40;3.28;;;22.90;99.90;;;;;;4144357;28;20971;-76
2022/07/05 09:31:40;;;;;;;5.47;3.22;;;22.90;99.90;;;;;;4139421;28;20209;-81
2022/07/05 09:33:50;;;;;;;8.18;3.20;;;22.80;99.90;;;;;;4138238;28;20274;-78
2022/07/05 09:35:57;;;;;;;7.85;3.15;;;22.80;99.90;;;;;;4139402;28;20252;-79
2022/07/05 09:37:59;;;;;;;8.00;3.45;;;22.80;99.90;;;;;;4138770;28;20367;-78
2022/07/05 09:40:01;;;;;;;8.73;3.50;;;22.80;99.90;;;;;;4140818;28;20217;-79
2022/07/05 09:42:17;;;;;;;6.15;3.13;;;22.80;99.90;;;;;;4141640;28;20213;-79
2022/07/05 09:44:26;;;;;;;9.32;3.17;;;23.00;99.90;;;;;;4136858;28;20225;-81
2022/07/05 09:46:31;;;;;;;8.65;3.50;;;23.10;99.90;;;;;;4137515;28;20274;-79
2022/07/05 09:48:34;;;;;;;10.10;3.55;;;23.10;99.90;;;;;;4140651;28;20217;-77
2022/07/05 09:50:37;;;;;;;10.65;3.45;;;23.10;99.90;;;;;;4138233;28;20283;-78
2022/07/05 09:52:43;;;;;;;10.45;3.30;;;23.10;99.90;;;;;;4141001;28;20217;-77
2022/07/05 09:55:02;;;;;;;6.13;3.03;;;23.10;99.90;;;;;;4138055;28;20275;-79
2022/07/05 09:57:04;;;;;;;8.82;3.30;;;23.20;99.90;;;;;;4139724;28;20723;-75
2022/07/05 09:59:17;;;;;;;9.63;3.60;;;23.40;99.90;;;;;;4137457;28;20205;-79
2022/07/05 10:01:27;;;;;;;8.13;3.40;;;23.40;99.90;;;;;;4138980;28;20555;-78
2022/07/05 10:03:29;;;;;;;10.27;3.42;;;23.40;99.90;;;;;;4136696;28;20731;-76
2022/07/05 10:05:33;;;;;;;6.70;3.25;;;23.40;99.90;;;;;;4139852;28;20727;-81
2022/07/05 10:07:37;;;;;;;7.85;3.28;;;23.50;99.90;;;;;;4141324;28;20255;-80
2022/07/05 10:09:40;;;;;;;9.48;2.90;;;23.70;99.90;;;;;;4141565;28;20336;-81
2022/07/05 10:11:44;;;;;;;6.20;2.78;;;23.80;99.90;;;;;;4138109;28;20225;-82
2022/07/05 10:13:49;;;;;;;6.20;2.78;;;23.90;99.90;;;;;;4137710;28;20221;-79
2022/07/05 10:15:52;;;;;;;8.50;2.88;;;24.00;99.90;;;;;;4140413;28;20303;-81
2022/07/05 10:17:57;;;;;;;5.97;2.80;;;24.00;99.90;;;;;;4142982;28;20263;-80
2022/07/05 10:20:00;;;;;;;4.22;2.60;;;24.10;99.90;;;;;;4138987;28;20275;-80
2022/07/05 10:22:03;;;;;;;4.70;2.97;;;24.20;99.90;;;;;;4139201;28;20276;-79
2022/07/05 10:24:06;;;;;;;5.97;2.75;;;24.20;99.90;;;;;;4138288;28;20712;-79
2022/07/05 10:26:10;;;;;;;5.10;2.60;;;24.30;99.90;;;;;;4139744;28;20216;-79
2022/07/05 10:28:13;;;;;;;7.35;2.50;;;24.30;99.90;;;;;;4140991;28;21866;-78
2022/07/05 10:30:16;;;;;;;9.45;2.80;;;24.40;99.90;;;;;;4138215;28;20241;-79
2022/07/05 10:32:24;;;;;;;5.45;2.30;;;24.40;99.90;;;;;;4138036;28;20649;-79
2022/07/05 10:34:26;;;;;;;6.10;2.72;;;24.40;99.90;;;;;;4141012;28;20217;-79
2022/07/05 10:36:29;;;;;;;4.50;2.47;;;24.40;99.90;;;;;;4143333;28;20653;-80
2022/07/05 10:38:35;;;;;;;5.32;2.25;;;24.40;99.90;;;;;;4140870;28;20963;-78
2022/07/05 10:40:40;;;;;;;6.75;2.80;;;24.50;99.90;;;;;;4139300;28;20210;-78
2022/07/05 10:42:48;;;;;;;4.20;2.53;;;24.50;99.90;;;;;;4141824;28;20256;-79
2022/07/05 10:44:50;;;;;;;4.55;2.65;;;24.50;99.90;;;;;;4139251;28;20794;-79